createdAt,value
2023-04-09T00:00:07.425Z,24.63
2023-04-09T00:02:12.504Z,24.61
2023-04-09T00:04:17.876Z,24.62
2023-04-09T00:06:23.107Z,24.64
2023-04-09T00:08:28.174Z,24.63
2023-04-09T00:10:33.255Z,24.62
2023-04-09T00:12:38.352Z,24.61
2023-04-09T00:14:43.461Z,24.6
2023-04-09T00:16:48.454Z,24.58
2023-04-09T00:18:53.715Z,24.59
2023-04-09T00:20:58.955Z,24.58
2023-04-09T00:23:04.053Z,24.59
2023-04-09T00:25:09.170Z,24.58
2023-04-09T00:27:14.251Z,24.58
2023-04-09T00:29:19.384Z,24.56
2023-04-09T00:31:24.612Z,24.57
2023-04-09T00:33:29.839Z,24.58
2023-04-09T00:35:34.956Z,24.58
2023-04-09T00:37:40.190Z,24.58
2023-04-09T00:39:45.224Z,24.57
2023-04-09T00:41:50.281Z,24.53
2023-04-09T00:43:55.337Z,24.53
2023-04-09T00:46:00.463Z,24.52
2023-04-09T00:48:05.773Z,24.53
2023-04-09T00:50:10.805Z,24.5
2023-04-09T00:52:15.847Z,24.52
2023-04-09T00:54:20.893Z,24.5
2023-04-09T00:56:25.996Z,24.47
2023-04-09T00:58:31.047Z,24.48
2023-04-09T01:00:36.219Z,24.47
2023-04-09T01:02:41.385Z,24.47
2023-04-09T01:04:47.168Z,24.46
2023-04-09T01:06:52.231Z,24.45
2023-04-09T01:08:57.307Z,24.45
2023-04-09T01:11:02.353Z,24.45
2023-04-09T01:13:07.448Z,24.45
2023-04-09T01:15:12.507Z,24.43
2023-04-09T01:17:17.565Z,24.44
2023-04-09T01:19:23.073Z,24.4
2023-04-09T01:21:28.174Z,24.43
2023-04-09T01:23:33.211Z,24.41
2023-04-09T01:25:38.263Z,24.4
2023-04-09T01:27:43.525Z,24.38
2023-04-09T01:29:48.586Z,24.38
2023-04-09T01:31:53.634Z,24.37
2023-04-09T01:33:58.893Z,24.36
2023-04-09T01:36:04.021Z,24.38
2023-04-09T01:38:09.189Z,24.35
2023-04-09T01:40:14.245Z,24.36
2023-04-09T01:42:19.355Z,24.35
2023-04-09T01:44:24.478Z,24.34
2023-04-09T01:46:29.631Z,24.34
2023-04-09T01:48:34.989Z,24.33
2023-04-09T01:50:40.010Z,24.31
2023-04-09T01:52:45.181Z,24.28
2023-04-09T01:54:50.215Z,24.3
2023-04-09T01:56:55.231Z,24.29
2023-04-09T01:59:00.307Z,24.26
2023-04-09T02:01:05.446Z,24.28
2023-04-09T02:03:10.649Z,24.27
2023-04-09T02:05:16.185Z,24.26
2023-04-09T02:07:21.204Z,24.25
2023-04-09T02:09:26.228Z,24.24
2023-04-09T02:11:31.320Z,24.24
2023-04-09T02:13:36.357Z,24.21
2023-04-09T02:15:41.454Z,24.2
2023-04-09T02:17:46.688Z,24.19
2023-04-09T02:19:52.053Z,24.18
2023-04-09T02:21:57.169Z,24.17
2023-04-09T02:24:02.252Z,24.15
2023-04-09T02:26:07.399Z,24.13
2023-04-09T02:28:12.434Z,24.11
2023-04-09T02:30:17.480Z,24.1
2023-04-09T02:32:22.599Z,24.1
2023-04-09T02:34:27.892Z,24.09
2023-04-09T02:36:33.006Z,24.09
2023-04-09T02:38:38.057Z,24.09
2023-04-09T02:40:43.091Z,24.07
2023-04-09T02:42:48.227Z,24.05
2023-04-09T02:44:53.309Z,24.03
2023-04-09T02:46:58.330Z,24.01
2023-04-09T02:49:03.443Z,23.99
2023-04-09T02:51:08.602Z,23.95
2023-04-09T02:53:13.696Z,23.97
2023-04-09T02:55:18.773Z,23.96
2023-04-09T02:57:23.797Z,23.95
2023-04-09T02:59:28.902Z,23.93
2023-04-09T03:01:34.009Z,23.91
2023-04-09T03:03:39.397Z,23.92
2023-04-09T03:05:44.888Z,23.9
2023-04-09T03:07:49.962Z,23.9
2023-04-09T03:09:55.026Z,23.88
2023-04-09T03:12:00.043Z,23.85
2023-04-09T03:14:05.096Z,23.86
2023-04-09T03:16:10.152Z,23.84
2023-04-09T03:18:15.356Z,23.85
2023-04-09T03:20:20.450Z,23.82
2023-04-09T03:22:25.483Z,23.82
2023-04-09T03:24:30.548Z,23.79
2023-04-09T03:26:35.614Z,23.8
2023-04-09T03:28:40.664Z,23.8
2023-04-09T03:30:45.742Z,23.81
2023-04-09T03:32:50.840Z,23.79
2023-04-09T03:34:55.987Z,23.79
2023-04-09T03:37:01.063Z,23.79
2023-04-09T03:39:06.298Z,23.77
2023-04-09T03:41:11.393Z,23.76
2023-04-09T03:43:16.505Z,23.73
2023-04-09T03:45:21.526Z,23.72
2023-04-09T03:47:26.706Z,23.72
2023-04-09T03:49:31.882Z,23.72
2023-04-09T03:51:36.886Z,23.72
2023-04-09T03:53:41.955Z,23.71
2023-04-09T03:55:47.076Z,23.72
2023-04-09T03:57:52.090Z,23.7
2023-04-09T03:59:57.254Z,23.67
2023-04-09T04:02:02.369Z,23.69
2023-04-09T04:04:07.602Z,23.69
2023-04-09T04:06:13.045Z,23.7
2023-04-09T04:08:18.077Z,23.66
2023-04-09T04:10:23.087Z,23.65
2023-04-09T04:12:28.176Z,23.67
2023-04-09T04:14:33.213Z,23.69
2023-04-09T04:16:38.307Z,23.68
2023-04-09T04:18:43.734Z,23.69
2023-04-09T04:20:48.854Z,23.68
2023-04-09T04:22:53.921Z,23.67
2023-04-09T04:24:58.962Z,23.67
2023-04-09T04:27:04.066Z,23.66
2023-04-09T04:29:09.208Z,23.66
2023-04-09T04:31:14.234Z,23.66
2023-04-09T04:33:19.462Z,23.65
2023-04-09T04:35:24.524Z,23.65
2023-04-09T04:37:29.741Z,23.64
2023-04-09T04:39:34.799Z,23.64
2023-04-09T04:41:39.816Z,23.63
2023-04-09T04:43:44.894Z,23.62
2023-04-09T04:45:50.695Z,23.61
2023-04-09T04:47:57.751Z,23.6
2023-04-09T04:50:03.012Z,23.58
2023-04-09T04:52:08.076Z,23.6
2023-04-09T04:54:13.097Z,23.59
2023-04-09T04:56:18.120Z,23.59
2023-04-09T04:58:23.172Z,23.53
2023-04-09T05:00:28.341Z,23.56
2023-04-09T05:02:33.583Z,23.58
2023-04-09T05:04:39.048Z,23.59
2023-04-09T05:06:44.115Z,23.59
2023-04-09T05:08:49.138Z,23.6
2023-04-09T05:10:55.156Z,23.62
2023-04-09T05:13:00.315Z,23.64
2023-04-09T05:15:05.507Z,23.6
2023-04-09T05:17:10.570Z,23.59
2023-04-09T05:19:15.743Z,23.59
2023-04-09T05:21:20.875Z,23.57
2023-04-09T05:23:26.048Z,23.56
2023-04-09T05:25:31.068Z,23.56
2023-04-09T05:27:36.182Z,23.53
2023-04-09T05:29:41.293Z,23.54
2023-04-09T05:31:46.323Z,23.51
2023-04-09T05:33:51.322Z,23.49
2023-04-09T05:35:56.497Z,23.51
2023-04-09T05:38:01.697Z,23.55
2023-04-09T05:40:06.796Z,23.54
2023-04-09T05:42:11.839Z,23.53
2023-04-09T05:44:17.022Z,23.51
2023-04-09T05:46:22.043Z,23.52
2023-04-09T05:48:27.224Z,23.52
2023-04-09T05:50:38.132Z,23.52
2023-04-09T05:52:58.793Z,23.52
2023-04-09T05:55:03.870Z,23.53
2023-04-09T05:57:08.919Z,23.55
2023-04-09T05:59:13.973Z,23.54
2023-04-09T06:01:18.994Z,23.58
2023-04-09T06:03:24.132Z,23.56
2023-04-09T06:05:29.669Z,23.54
2023-04-09T06:07:34.853Z,23.54
2023-04-09T06:09:39.899Z,23.52
2023-04-09T06:11:44.948Z,23.53
2023-04-09T06:13:50.069Z,23.53
2023-04-09T06:15:55.789Z,23.51
2023-04-09T06:18:01.209Z,23.52
2023-04-09T06:20:06.419Z,23.5
2023-04-09T06:22:11.532Z,23.5
2023-04-09T06:24:16.579Z,23.51
2023-04-09T06:26:21.602Z,23.51
2023-04-09T06:28:26.666Z,23.51
2023-04-09T06:30:31.722Z,23.5
2023-04-09T06:32:43.615Z,23.48
2023-04-09T06:34:58.817Z,23.46
2023-04-09T06:37:03.872Z,23.48
2023-04-09T06:39:09.063Z,23.46
2023-04-09T06:41:14.106Z,23.45
2023-04-09T06:43:19.385Z,23.44
2023-04-09T06:45:24.427Z,23.41
2023-04-09T06:47:29.613Z,23.41
2023-04-09T06:49:34.840Z,23.42
2023-04-09T06:51:39.895Z,23.41
2023-04-09T06:53:45.032Z,23.39
2023-04-09T06:55:50.354Z,23.39
2023-04-09T06:57:55.761Z,23.39
2023-04-09T07:00:00.895Z,23.39
2023-04-09T07:02:06.236Z,23.4
2023-04-09T07:04:11.917Z,23.39
2023-04-09T07:06:17.689Z,23.4
2023-04-09T07:08:22.809Z,23.4
2023-04-09T07:10:27.909Z,23.39
2023-04-09T07:12:32.947Z,23.39
2023-04-09T07:14:37.965Z,23.38
2023-04-09T07:16:43.089Z,23.38
2023-04-09T07:18:48.317Z,23.38
2023-04-09T07:20:53.367Z,23.38
2023-04-09T07:22:58.414Z,23.37
2023-04-09T07:25:04.008Z,23.36
2023-04-09T07:27:09.205Z,23.36
2023-04-09T07:29:14.234Z,23.37
2023-04-09T07:31:19.347Z,23.36
2023-04-09T07:33:24.523Z,23.32
2023-04-09T07:35:29.687Z,23.34
2023-04-09T07:37:35.132Z,23.38
2023-04-09T07:39:40.588Z,23.44
2023-04-09T07:41:45.664Z,23.53
2023-04-09T07:43:50.747Z,23.6
2023-04-09T07:45:55.877Z,23.69
2023-04-09T07:48:01.001Z,23.72
2023-04-09T07:50:06.223Z,23.79
2023-04-09T07:52:11.264Z,23.82
2023-04-09T07:54:16.478Z,23.84
2023-04-09T07:56:21.521Z,23.89
2023-04-09T07:58:26.725Z,23.94
2023-04-09T08:00:31.789Z,24
2023-04-09T08:02:36.832Z,24.05
2023-04-09T08:04:42.452Z,24.13
2023-04-09T08:06:48.285Z,24.17
2023-04-09T08:08:53.742Z,24.25
2023-04-09T08:10:59.120Z,24.3
2023-04-09T08:13:04.136Z,24.31
2023-04-09T08:15:09.304Z,24.33
2023-04-09T08:17:14.379Z,24.34
2023-04-09T08:19:19.429Z,24.35
2023-04-09T08:21:24.599Z,24.35
2023-04-09T08:23:29.784Z,24.35
2023-04-09T08:25:34.821Z,24.36
2023-04-09T08:27:39.929Z,24.36
2023-04-09T08:29:45.042Z,24.36
2023-04-09T08:31:50.098Z,24.39
2023-04-09T08:33:55.316Z,24.37
2023-04-09T08:36:02.754Z,24.25
2023-04-09T08:38:08.368Z,24.14
2023-04-09T08:40:13.409Z,24.09
2023-04-09T08:42:18.465Z,24.02
2023-04-09T08:44:23.547Z,24
2023-04-09T08:46:28.583Z,23.98
2023-04-09T08:48:33.750Z,23.98
2023-04-09T08:50:39.039Z,24.01
2023-04-09T08:52:44.042Z,24.01
2023-04-09T08:54:49.073Z,24.02
2023-04-09T08:56:54.363Z,24.03
2023-04-09T08:58:59.394Z,24.06
2023-04-09T09:01:04.501Z,24.06
2023-04-09T09:03:09.801Z,24.07
2023-04-09T09:05:15.228Z,24.06
2023-04-09T09:07:20.369Z,24.05
2023-04-09T09:09:25.600Z,24.04
2023-04-09T09:11:30.627Z,24.05
2023-04-09T09:13:35.731Z,24.01
2023-04-09T09:15:40.939Z,23.99
2023-04-09T09:17:46.198Z,24.01
2023-04-09T09:19:51.341Z,24.02
2023-04-09T09:21:56.417Z,24.01
2023-04-09T09:24:01.644Z,24.04
2023-04-09T09:26:06.701Z,24.03
2023-04-09T09:28:11.815Z,24.03
2023-04-09T09:30:16.881Z,24.03
2023-04-09T09:32:21.948Z,24
2023-04-09T09:34:27.101Z,24.01
2023-04-09T09:36:32.138Z,24.05
2023-04-09T09:38:37.365Z,24.08
2023-04-09T09:40:42.425Z,24.17
2023-04-09T09:42:47.497Z,24.23
2023-04-09T09:44:52.544Z,24.28
2023-04-09T09:46:57.719Z,24.3
2023-04-09T09:49:02.833Z,24.32
2023-04-09T09:51:07.961Z,24.34
2023-04-09T09:53:13.035Z,24.37
2023-04-09T09:55:18.131Z,24.38
2023-04-09T09:57:23.191Z,24.38
2023-04-09T09:59:28.293Z,24.39
2023-04-09T10:01:33.359Z,24.41
2023-04-09T10:03:38.795Z,24.45
2023-04-09T10:05:43.821Z,24.49
2023-04-09T10:07:48.880Z,24.54
2023-04-09T10:09:53.937Z,24.6
2023-04-09T10:11:59.061Z,24.63
2023-04-09T10:14:04.126Z,24.66
2023-04-09T10:16:09.315Z,24.7
2023-04-09T10:18:14.612Z,24.72
2023-04-09T10:20:19.638Z,24.75
2023-04-09T10:22:24.744Z,24.75
2023-04-09T10:24:29.789Z,24.8
2023-04-09T10:26:34.850Z,24.82
2023-04-09T10:28:39.919Z,24.85
2023-04-09T10:30:45.071Z,24.87
2023-04-09T10:32:50.321Z,24.88
2023-04-09T10:34:55.546Z,24.91
2023-04-09T10:37:00.625Z,24.94
2023-04-09T10:39:05.783Z,24.97
2023-04-09T10:41:10.886Z,24.97
2023-04-09T10:43:15.911Z,24.98
2023-04-09T10:45:22.434Z,25
2023-04-09T10:47:27.572Z,25.03
2023-04-09T10:49:32.773Z,25.05
2023-04-09T10:51:37.822Z,25.05
2023-04-09T10:53:42.869Z,25.04
2023-04-09T10:55:47.915Z,25.06
2023-04-09T10:57:53.070Z,25.09
2023-04-09T10:59:58.122Z,25.09
2023-04-09T11:02:03.374Z,25.07
2023-04-09T11:04:10.577Z,25.03
2023-04-09T11:06:15.907Z,25.01
2023-04-09T11:08:21.028Z,25
2023-04-09T11:10:26.341Z,25.01
2023-04-09T11:12:31.399Z,25.04
2023-04-09T11:14:36.507Z,25.03
2023-04-09T11:16:41.542Z,25.08
2023-04-09T11:18:46.925Z,25.17
2023-04-09T11:20:52.085Z,25.18
2023-04-09T11:22:57.120Z,25.19
2023-04-09T11:25:02.217Z,25.18
2023-04-09T11:27:07.274Z,25.1
2023-04-09T11:29:12.346Z,25.09
2023-04-09T11:31:17.491Z,25.08
2023-04-09T11:33:22.689Z,25.05
2023-04-09T11:35:27.794Z,25.04
2023-04-09T11:37:33.090Z,25.05
2023-04-09T11:39:38.169Z,25.09
2023-04-09T11:41:43.279Z,25.14
2023-04-09T11:43:48.340Z,25.21
2023-04-09T11:45:53.375Z,25.28
2023-04-09T11:48:00.529Z,25.32
2023-04-09T11:50:05.951Z,25.36
2023-04-09T11:52:11.024Z,25.35
2023-04-09T11:54:16.053Z,25.28
2023-04-09T11:56:21.171Z,25.23
2023-04-09T11:58:26.232Z,25.15
2023-04-09T12:00:31.350Z,25
2023-04-09T12:02:36.597Z,24.9
2023-04-09T12:04:42.060Z,24.83
2023-04-09T12:06:47.419Z,24.72
2023-04-09T12:08:52.486Z,24.67
2023-04-09T12:10:57.787Z,24.67
2023-04-09T12:13:02.833Z,24.64
2023-04-09T12:15:07.868Z,24.6
2023-04-09T12:17:12.968Z,24.51
2023-04-09T12:19:17.983Z,24.52
2023-04-09T12:21:23.052Z,24.44
2023-04-09T12:23:28.078Z,24.37
2023-04-09T12:25:33.121Z,24.33
2023-04-09T12:27:38.253Z,24.25
2023-04-09T12:29:43.320Z,24.19
2023-04-09T12:31:48.528Z,24.18
2023-04-09T12:33:53.816Z,24.13
2023-04-09T12:35:59.019Z,24.05
2023-04-09T12:38:04.214Z,23.97
2023-04-09T12:40:09.362Z,23.9
2023-04-09T12:42:14.603Z,23.87
2023-04-09T12:44:19.880Z,23.77
2023-04-09T12:46:25.009Z,23.8
2023-04-09T12:48:30.216Z,23.83
2023-04-09T12:50:35.250Z,23.89
2023-04-09T12:52:40.371Z,23.91
2023-04-09T12:54:45.425Z,23.91
2023-04-09T12:56:52.654Z,23.93
2023-04-09T12:58:57.708Z,23.96
2023-04-09T13:01:02.811Z,23.97
2023-04-09T13:03:08.170Z,24.01
2023-04-09T13:05:13.591Z,24.02
2023-04-09T13:07:18.701Z,24
2023-04-09T13:09:23.781Z,24.01
2023-04-09T13:11:28.840Z,23.99
2023-04-09T13:13:33.899Z,23.99
2023-04-09T13:15:38.960Z,24.01
2023-04-09T13:17:44.078Z,24.03
2023-04-09T13:19:49.353Z,24.03
2023-04-09T13:21:54.491Z,24.01
2023-04-09T13:23:59.554Z,24
2023-04-09T13:26:04.672Z,23.98
2023-04-09T13:28:09.750Z,23.95
2023-04-09T13:30:14.814Z,23.9
2023-04-09T13:32:19.897Z,23.95
2023-04-09T13:34:25.109Z,23.94
2023-04-09T13:36:30.189Z,23.89
2023-04-09T13:38:35.322Z,23.84
2023-04-09T13:40:40.485Z,23.86
2023-04-09T13:42:45.611Z,23.84
2023-04-09T13:44:50.691Z,23.83
2023-04-09T13:46:55.777Z,23.79
2023-04-09T13:49:00.853Z,23.74
2023-04-09T13:51:05.860Z,23.73
2023-04-09T13:53:10.965Z,23.65
2023-04-09T13:55:16.101Z,23.64
2023-04-09T13:57:21.141Z,23.62
2023-04-09T13:59:26.191Z,23.63
2023-04-09T14:01:31.261Z,23.64
2023-04-09T14:03:36.841Z,23.62
2023-04-09T14:05:42.175Z,23.63
2023-04-09T14:07:47.404Z,23.63
2023-04-09T14:09:52.556Z,23.62
2023-04-09T14:11:57.769Z,23.59
2023-04-09T14:14:02.866Z,23.57
2023-04-09T14:16:08.026Z,23.6
2023-04-09T14:18:13.127Z,23.62
2023-04-09T14:20:18.288Z,23.6
2023-04-09T14:22:23.357Z,23.6
2023-04-09T14:24:28.385Z,23.6
2023-04-09T14:26:33.444Z,23.57
2023-04-09T14:28:38.499Z,23.56
2023-04-09T14:30:43.601Z,23.54
2023-04-09T14:32:48.786Z,23.51
2023-04-09T14:34:53.935Z,23.49
2023-04-09T14:36:59.002Z,23.52
2023-04-09T14:39:04.108Z,23.53
2023-04-09T14:41:09.239Z,23.52
2023-04-09T14:43:14.327Z,23.51
2023-04-09T14:45:19.468Z,23.48
2023-04-09T14:47:24.572Z,23.46
2023-04-09T14:49:29.785Z,23.48
2023-04-09T14:51:34.801Z,23.45
2023-04-09T14:53:39.933Z,23.44
2023-04-09T14:55:45.005Z,23.43
2023-04-09T14:57:50.082Z,23.36
2023-04-09T14:59:55.245Z,23.21
2023-04-09T15:02:00.339Z,23.3
2023-04-09T15:04:06.116Z,23.47
2023-04-09T15:06:11.574Z,23.63
2023-04-09T15:08:16.669Z,23.75
2023-04-09T15:10:21.715Z,23.87
2023-04-09T15:12:26.771Z,23.98
2023-04-09T15:14:31.811Z,24.06
2023-04-09T15:16:36.900Z,24.15
2023-04-09T15:18:42.321Z,24.22
2023-04-09T15:20:47.586Z,24.3
2023-04-09T15:22:52.652Z,24.38
2023-04-09T15:24:57.770Z,24.45
2023-04-09T15:27:02.855Z,24.51
2023-04-09T15:29:07.908Z,24.56
2023-04-09T15:31:13.161Z,24.59
2023-04-09T15:33:18.455Z,24.61
2023-04-09T15:35:23.520Z,24.66
2023-04-09T15:37:28.661Z,24.7
2023-04-09T15:39:33.751Z,24.7
2023-04-09T15:41:38.784Z,24.72
2023-04-09T15:43:43.870Z,24.76
2023-04-09T15:45:48.970Z,24.8
2023-04-09T15:47:54.402Z,24.82
2023-04-09T15:49:59.685Z,24.8
2023-04-09T15:52:04.782Z,24.76
2023-04-09T15:54:09.935Z,24.64
2023-04-09T15:56:15.034Z,24.54
2023-04-09T15:58:20.197Z,24.43
2023-04-09T16:00:25.322Z,24.35
2023-04-09T16:02:30.449Z,24.26
2023-04-09T16:04:35.818Z,24.2
2023-04-09T16:06:41.027Z,24.13
2023-04-09T16:08:46.231Z,24.06
2023-04-09T16:10:51.370Z,24.01
2023-04-09T16:12:56.471Z,23.94
2023-04-09T16:15:01.588Z,23.92
2023-04-09T16:17:06.823Z,23.82
2023-04-09T16:19:12.127Z,23.78
2023-04-09T16:21:17.308Z,23.75
2023-04-09T16:23:22.417Z,23.72
2023-04-09T16:25:28.142Z,23.68
2023-04-09T16:27:33.263Z,23.68
2023-04-09T16:29:38.334Z,23.67
2023-04-09T16:31:43.696Z,23.66
2023-04-09T16:33:49.189Z,23.65
2023-04-09T16:35:54.394Z,23.62
2023-04-09T16:37:59.647Z,23.61
2023-04-09T16:40:04.900Z,23.57
2023-04-09T16:42:10.053Z,23.58
2023-04-09T16:44:15.464Z,23.59
2023-04-09T16:46:20.588Z,23.57
2023-04-09T16:48:26.140Z,23.55
2023-04-09T16:50:31.360Z,23.52
2023-04-09T16:52:36.573Z,23.51
2023-04-09T16:54:42.005Z,23.5
2023-04-09T16:56:47.085Z,23.48
2023-04-09T16:58:52.415Z,23.48
2023-04-09T17:00:58.645Z,23.54
2023-04-09T17:03:04.110Z,23.66
2023-04-09T17:05:09.847Z,23.75
2023-04-09T17:07:15.017Z,23.86
2023-04-09T17:09:20.084Z,23.95
2023-04-09T17:11:25.153Z,24.05
2023-04-09T17:13:30.351Z,24.16
2023-04-09T17:15:35.554Z,24.26
2023-04-09T17:17:41.142Z,24.34
2023-04-09T17:19:46.490Z,24.42
2023-04-09T17:21:51.623Z,24.48
2023-04-09T17:23:56.770Z,24.52
2023-04-09T17:26:01.831Z,24.59
2023-04-09T17:28:06.887Z,24.65
2023-04-09T17:30:12.046Z,24.69
2023-04-09T17:32:17.091Z,24.7
2023-04-09T17:34:22.287Z,24.73
2023-04-09T17:36:27.393Z,24.78
2023-04-09T17:38:32.466Z,24.8
2023-04-09T17:40:37.596Z,24.82
2023-04-09T17:42:42.676Z,24.87
2023-04-09T17:44:47.707Z,24.93
2023-04-09T17:46:52.773Z,24.97
2023-04-09T17:48:58.157Z,24.99
2023-04-09T17:51:03.204Z,24.96
2023-04-09T17:53:08.266Z,24.96
2023-04-09T17:55:13.330Z,24.98
2023-04-09T17:57:18.428Z,24.97
2023-04-09T17:59:23.583Z,25
2023-04-09T18:01:28.823Z,24.98
2023-04-09T18:03:34.398Z,24.93
2023-04-09T18:05:40.529Z,24.87
2023-04-09T18:07:46.077Z,24.8
2023-04-09T18:09:51.260Z,24.73
2023-04-09T18:11:56.455Z,24.66
2023-04-09T18:14:01.490Z,24.63
2023-04-09T18:16:06.656Z,24.58
2023-04-09T18:18:11.956Z,24.54
2023-04-09T18:20:16.994Z,24.5
2023-04-09T18:22:22.090Z,24.51
2023-04-09T18:24:27.157Z,24.54
2023-04-09T18:26:32.225Z,24.57
2023-04-09T18:28:37.362Z,24.58
2023-04-09T18:30:42.430Z,24.59
2023-04-09T18:32:47.582Z,24.58
2023-04-09T18:34:53.039Z,24.57
2023-04-09T18:36:58.222Z,24.57
2023-04-09T18:39:03.322Z,24.59
2023-04-09T18:41:08.404Z,24.6
2023-04-09T18:43:13.568Z,24.59
2023-04-09T18:45:18.770Z,24.6
2023-04-09T18:47:23.958Z,24.61
2023-04-09T18:49:29.156Z,24.62
2023-04-09T18:51:34.303Z,24.61
2023-04-09T18:53:39.396Z,24.6
2023-04-09T18:55:44.546Z,24.61
2023-04-09T18:57:49.681Z,24.59
2023-04-09T18:59:54.750Z,24.6
2023-04-09T19:01:59.934Z,24.61
2023-04-09T19:04:05.426Z,24.65
2023-04-09T19:06:10.705Z,24.64
2023-04-09T19:08:15.758Z,24.67
2023-04-09T19:10:20.832Z,24.68
2023-04-09T19:12:26.017Z,24.68
2023-04-09T19:14:31.057Z,24.67
2023-04-09T19:16:36.223Z,24.67
2023-04-09T19:18:41.737Z,24.66
2023-04-09T19:20:46.937Z,24.67
2023-04-09T19:22:51.994Z,24.68
2023-04-09T19:24:57.182Z,24.65
2023-04-09T19:27:02.214Z,24.66
2023-04-09T19:29:07.402Z,24.66
2023-04-09T19:31:12.709Z,24.64
2023-04-09T19:33:17.865Z,24.63
2023-04-09T19:35:22.911Z,24.61
2023-04-09T19:37:28.263Z,24.59
2023-04-09T19:39:33.658Z,24.55
2023-04-09T19:41:38.964Z,24.55
2023-04-09T19:43:44.103Z,24.53
2023-04-09T19:45:49.213Z,24.5
2023-04-09T19:47:55.743Z,24.49
2023-04-09T19:50:01.345Z,24.51
2023-04-09T19:52:06.537Z,24.52
2023-04-09T19:54:11.694Z,24.53
2023-04-09T19:56:16.764Z,24.5
2023-04-09T19:58:21.864Z,24.52
2023-04-09T20:00:26.906Z,24.56
2023-04-09T20:02:32.057Z,24.59
2023-04-09T20:04:37.461Z,24.62
2023-04-09T20:06:42.435Z,24.62
2023-04-09T20:08:47.501Z,24.51
2023-04-09T20:10:52.551Z,24.51
2023-04-09T20:12:57.610Z,24.43
2023-04-09T20:15:02.713Z,24.42
2023-04-09T20:17:08.909Z,24.39
2023-04-09T20:19:14.104Z,24.36
2023-04-09T20:21:19.188Z,24.33
2023-04-09T20:23:24.299Z,24.33
2023-04-09T20:25:29.431Z,24.35
2023-04-09T20:27:34.629Z,24.36
2023-04-09T20:29:39.844Z,24.38
2023-04-09T20:31:44.974Z,24.38
2023-04-09T20:33:50.190Z,24.4
2023-04-09T20:35:55.308Z,24.43
2023-04-09T20:38:00.502Z,24.46
2023-04-09T20:40:05.609Z,24.5
2023-04-09T20:42:10.802Z,24.53
2023-04-09T20:44:15.854Z,24.55
2023-04-09T20:46:20.965Z,24.55
2023-04-09T20:48:26.345Z,24.55
2023-04-09T20:50:31.346Z,24.57
2023-04-09T20:52:36.497Z,24.58
2023-04-09T20:54:41.586Z,24.58
2023-04-09T20:56:46.612Z,24.59
2023-04-09T20:58:51.830Z,24.57
2023-04-09T21:00:57.597Z,24.56
2023-04-09T21:03:03.065Z,24.55
2023-04-09T21:05:21.673Z,24.53
2023-04-09T21:07:29.950Z,24.44
2023-04-09T21:09:35.077Z,24.34
2023-04-09T21:11:40.199Z,24.25
2023-04-09T21:15:59.178Z,24.21
2023-04-09T21:18:04.339Z,24.24
2023-04-09T21:20:09.772Z,24.28
2023-04-09T21:22:14.958Z,24.28
2023-04-09T21:24:20.049Z,24.28
2023-04-09T21:26:25.261Z,24.28
2023-04-09T21:28:36.307Z,24.29
2023-04-09T21:30:41.447Z,24.31
2023-04-09T21:32:46.693Z,24.33
2023-04-09T21:34:52.037Z,24.35
2023-04-09T21:36:57.115Z,24.37
2023-04-09T21:39:02.259Z,24.39
2023-04-09T21:41:07.328Z,24.4
2023-04-09T21:43:12.613Z,24.39
2023-04-09T21:45:17.721Z,24.36
2023-04-09T21:47:22.866Z,24.35
2023-04-09T21:49:27.998Z,24.36
2023-04-09T21:51:33.109Z,24.34
2023-04-09T21:53:38.294Z,24.34
2023-04-09T21:55:43.379Z,24.33
2023-04-09T21:57:48.437Z,24.33
2023-04-09T21:59:53.624Z,24.34
2023-04-09T22:01:58.729Z,24.34
2023-04-09T22:04:04.483Z,24.35
2023-04-09T22:06:09.873Z,24.36
2023-04-09T22:08:15.014Z,24.37
2023-04-09T22:10:20.087Z,24.36
2023-04-09T22:12:25.105Z,24.37
2023-04-09T22:14:30.255Z,24.37
2023-04-09T22:16:35.386Z,24.43
2023-04-09T22:18:40.448Z,24.47
2023-04-09T22:20:45.537Z,24.49
2023-04-09T22:22:50.622Z,24.5
2023-04-09T22:24:55.669Z,24.51
2023-04-09T22:27:00.730Z,24.53
2023-04-09T22:29:06.908Z,24.53
2023-04-09T22:31:12.108Z,24.55
2023-04-09T22:33:17.181Z,24.56
2023-04-09T22:35:22.335Z,24.55
2023-04-09T22:37:27.458Z,24.52
2023-04-09T22:39:32.537Z,24.5
2023-04-09T22:41:37.592Z,24.46
2023-04-09T22:43:42.683Z,24.43
2023-04-09T22:45:47.793Z,24.4
2023-04-09T22:47:52.877Z,24.39
2023-04-09T22:49:58.072Z,24.39
2023-04-09T22:52:03.190Z,24.38
2023-04-09T22:54:08.305Z,24.38
2023-04-09T22:56:13.413Z,24.36
2023-04-09T22:58:18.544Z,24.38
2023-04-09T23:00:23.612Z,24.38
2023-04-09T23:02:28.719Z,24.36
2023-04-09T23:04:34.187Z,24.35
2023-04-09T23:06:39.523Z,24.34
2023-04-09T23:08:44.738Z,24.34
2023-04-09T23:10:49.839Z,24.33
2023-04-09T23:12:54.928Z,24.32
2023-04-09T23:15:00.188Z,24.34
2023-04-09T23:17:05.372Z,24.34
2023-04-09T23:19:10.417Z,24.34
2023-04-09T23:21:15.491Z,24.34
2023-04-09T23:23:20.643Z,24.34
2023-04-09T23:25:25.806Z,24.34
2023-04-09T23:27:30.893Z,24.32
2023-04-09T23:29:35.897Z,24.3
2023-04-09T23:31:41.006Z,24.27
2023-04-09T23:33:46.198Z,24.26
2023-04-09T23:35:51.319Z,24.27
2023-04-09T23:37:56.769Z,24.27
2023-04-09T23:40:01.819Z,24.24
2023-04-09T23:42:06.872Z,24.26
2023-04-09T23:44:11.964Z,24.25
2023-04-09T23:46:17.014Z,24.23
2023-04-09T23:48:22.290Z,24.23
2023-04-09T23:50:27.404Z,24.24
2023-04-09T23:52:32.424Z,24.23
2023-04-09T23:54:37.648Z,24.23
2023-04-09T23:56:42.670Z,24.22
2023-04-09T23:58:47.723Z,24.21
